Yaroslavl', Russia
Current Conditions -  °F | °C
As of 8:00 PM on Wednesday 26 Nov 2014 (Local Time) from UUDL Reporting Station
Overcast Overcast  
Wind Chill: 19°   Ceiling: 1200
Heat Index: 25°   Visibility: 5mi
Dew Point: 21°   Wind: 4mph
Humidity: 86%   Direction: 280°W
Pressure: 30.39"   Gusts: NA
Location:  57.41°N, 39.46°E
Report Text: UUDL 261700Z 28002MPS 8000 OVC012 M04/M06 Q1029 NOSIG RMKQFE764 23000060
Loading
Personal Weather Stations






























Interactive Weather Map New forecast layout! Learn more

10-Day Weather Forecast

Advertisements
Track Severe Weather on mobile